Terminal Aerodrome Forecast
Issued by NWS Twin Cities, MN

Home | Current Version | Previous Version | Text Only | Print | Product List | Glossary On
Versions: 1 2 3 4 5 6 7 8 9 10 11 12 13 14 15 16 17 18 19 20 21 22 23 24 25 26 27 28 29 30
000
FTUS43 KMPX 292110 AAA
TAFMSP
TAF AMD
KMSP 292110Z 2921/3024 28011G18KT P6SM VCSH SCT050
     FM300000 27008KT P6SM FEW050
     FM301100 22004KT P6SM SKC
     FM301900 16007KT P6SM SCT120 BKN200=

USA.gov is the U.S. government's official web portal to all federal, state and local government web resources and services.